HMS Portugal — V2NA6 — position and weather

sailwx.info

Track history (hours):
 
Tides and Currents Weather Stations Pressure Air Temp Water Temp Dewpoint Dewpoint Depression Visibility Wind Speed Wind Dir Waves Ship Positions

HMS Portugal

Last reported at 2017-Oct-12 02:16 UTC. Time now 2017-Oct-17 11:11 UTC.
Position N 26°46' W 079°59'.

Length 100 m; draft 6.2 m.

Type: Cargo ship. MMSI: 203640704.

Date/timePositionNaut miles runAvg speedWind from/ knotsBaromVisibWave heightAir tempDewpointWater temp
2017-Oct-12 02:16N 26°46' W 079°59'3 6.8
2017-Oct-12 01:53N 26°46' W 080°02'  
2017-Oct-03 10:01N 25°37' W 079°28'010.5
2017-Oct-03 10:00N 25°37' W 079°28'510.4
2017-Oct-03 09:30N 25°42' W 079°28'611.0
2017-Oct-03 09:00N 25°48' W 079°28'611.0
2017-Oct-03 08:30N 25°53' W 079°28'610.8
2017-Oct-03 07:59N 25°59' W 079°28'510.6
2017-Oct-03 07:29N 26°04' W 079°28'511.0
2017-Oct-03 07:00N 26°09' W 079°28'611.1
2017-Oct-03 06:30N 26°15' W 079°28'43 8.2
2017-Oct-03 01:18N 26°46' W 080°01'1 0.5
2017-Oct-02 22:38N 26°46' W 080°03'0 0.0
2017-Oct-02 21:35N 26°46' W 080°03'0 0.1
2017-Oct-02 21:29N 26°46' W 080°03'0 0.0
2017-Oct-02 20:47N 26°46' W 080°03'0 0.0
2017-Oct-02 20:20N 26°46' W 080°03'0 0.0
2017-Oct-02 19:59N 26°46' W 080°03'0 0.0
2017-Oct-02 19:29N 26°46' W 080°03'0 0.0
2017-Oct-02 18:53N 26°46' W 080°03'0 0.0
2017-Oct-02 18:20N 26°46' W 080°03'0 0.0
2017-Oct-02 17:59N 26°46' W 080°03'0 0.0
2017-Oct-02 17:29N 26°46' W 080°03'0 0.0
2017-Oct-02 16:59N 26°46' W 080°03'0 0.0
2017-Oct-02 16:23N 26°46' W 080°03'0 0.0
2017-Oct-02 15:56N 26°46' W 080°03'0 0.0
2017-Oct-02 15:23N 26°46' W 080°03'0 0.0
2017-Oct-02 14:47N 26°46' W 080°03'0 0.0
2017-Oct-02 14:30N 26°46' W 080°03'0 0.0
2017-Oct-02 14:00N 26°46' W 080°03'0 0.0
2017-Oct-02 13:30N 26°46' W 080°03'0 0.0
2017-Oct-02 13:00N 26°46' W 080°03'0 0.2
2017-Oct-02 12:29N 26°46' W 080°03'2 4.0
2017-Oct-02 12:00N 26°47' W 080°01'1 2.9
2017-Oct-02 11:30N 26°47' W 079°59'2 4.7
2017-Oct-02 11:01N 26°47' W 079°57'38 7.7
2017-Oct-02 06:02N 26°18' W 079°29'010.4
2017-Oct-02 06:00N 26°18' W 079°29'610.4
2017-Oct-02 05:27N 26°12' W 079°29'2110.5
2017-Oct-02 03:25N 25°51' W 079°32'510.8
2017-Oct-02 02:57N 25°46' W 079°32'510.7
2017-Oct-02 02:29N 25°41' W 079°33'  
Track history (hours):
 
Tides and Currents Weather Stations Pressure Air Temp Water Temp Dewpoint Dewpoint Depression Visibility Wind Speed Wind Dir Waves Ship Positions

HMS Portugal

Last reported at 2017-Oct-12 02:16 UTC. Time now 2017-Oct-17 11:11 UTC.
Position N 26°46' W 079°59'.

Length 100 m; draft 6.2 m.

Type: Cargo ship. MMSI: 203640704.

Date/timePositionNaut miles runAvg speedWind from/ knotsBaromVisibWave heightAir tempDewpointWater temp
2017-Oct-12 02:16N 26°46' W 079°59'3 6.8
2017-Oct-12 01:53N 26°46' W 080°02'  
2017-Oct-03 10:01N 25°37' W 079°28'010.5
2017-Oct-03 10:00N 25°37' W 079°28'510.4
2017-Oct-03 09:30N 25°42' W 079°28'611.0
2017-Oct-03 09:00N 25°48' W 079°28'611.0
2017-Oct-03 08:30N 25°53' W 079°28'610.8
2017-Oct-03 07:59N 25°59' W 079°28'510.6
2017-Oct-03 07:29N 26°04' W 079°28'511.0
2017-Oct-03 07:00N 26°09' W 079°28'611.1
2017-Oct-03 06:30N 26°15' W 079°28'43 8.2
2017-Oct-03 01:18N 26°46' W 080°01'1 0.5
2017-Oct-02 22:38N 26°46' W 080°03'0 0.0
2017-Oct-02 21:35N 26°46' W 080°03'0 0.1
2017-Oct-02 21:29N 26°46' W 080°03'0 0.0
2017-Oct-02 20:47N 26°46' W 080°03'0 0.0
2017-Oct-02 20:20N 26°46' W 080°03'0 0.0
2017-Oct-02 19:59N 26°46' W 080°03'0 0.0
2017-Oct-02 19:29N 26°46' W 080°03'0 0.0
2017-Oct-02 18:53N 26°46' W 080°03'0 0.0
2017-Oct-02 18:20N 26°46' W 080°03'0 0.0
2017-Oct-02 17:59N 26°46' W 080°03'0 0.0
2017-Oct-02 17:29N 26°46' W 080°03'0 0.0
2017-Oct-02 16:59N 26°46' W 080°03'0 0.0
2017-Oct-02 16:23N 26°46' W 080°03'0 0.0
2017-Oct-02 15:56N 26°46' W 080°03'0 0.0
2017-Oct-02 15:23N 26°46' W 080°03'0 0.0
2017-Oct-02 14:47N 26°46' W 080°03'0 0.0
2017-Oct-02 14:30N 26°46' W 080°03'0 0.0
2017-Oct-02 14:00N 26°46' W 080°03'0 0.0
2017-Oct-02 13:30N 26°46' W 080°03'0 0.0
2017-Oct-02 13:00N 26°46' W 080°03'0 0.2
2017-Oct-02 12:29N 26°46' W 080°03'2 4.0
2017-Oct-02 12:00N 26°47' W 080°01'1 2.9
2017-Oct-02 11:30N 26°47' W 079°59'2 4.7
2017-Oct-02 11:01N 26°47' W 079°57'38 7.7
2017-Oct-02 06:02N 26°18' W 079°29'010.4
2017-Oct-02 06:00N 26°18' W 079°29'610.4
2017-Oct-02 05:27N 26°12' W 079°29'2110.5
2017-Oct-02 03:25N 25°51' W 079°32'510.8
2017-Oct-02 02:57N 25°46' W 079°32'510.7
2017-Oct-02 02:29N 25°41' W 079°33'  

Dump ship's entire track history